Flight Track Log - Related Links

Times and Time Zones

All times are in EDT time to prevent confusion due to time zone crossing. See the XA-ASH flight status page for this flight to view local times or setup timezone preferences in your user account.

Time Position Orientation Groundspeed Altitude Reporting Facility
EDT Latitude Longitude Course Direction KTS MPH feet Rate Location/Type
Fri 07:23:19 PM 25.8969 -97.4133 215° Southwest 158 182 700  Level Houston Center
Fri 07:24:26 PM 25.8600 -97.4417 215° Southwest 225 259 4,700 3,457 Climbing Houston Center
Fri 07:25:50 PM 25.8717 -97.5594 276° West 274 315 9,400 3,288 Climbing Houston Center
Fri 07:26:52 PM 25.8814 -97.6547 276° West 306 352 12,700 2,952 Climbing Houston Center
Fri 07:27:54 PM 25.8983 -97.7436 282° West 296 341 15,500 2,323 Climbing Houston Center
Fri 07:28:56 PM 25.9150 -97.8381 281° West 289 333 17,500 1,694 Climbing Houston Center
Fri 07:29:58 PM 25.9325 -97.9353 281° West 315 362 19,000 1,220 Climbing Houston Center
Fri 07:30:59 PM 25.9617 -98.0467 286° West 343 395 20,000 488 Climbing Houston Center
Fri 07:32:01 PM 25.9989 -98.1608 290° West 389 448 20,000  Level Houston Center
Fri 07:33:03 PM 26.0019 -98.2922 272° West 426 490 20,000  Level Houston Center
Fri 07:34:05 PM 25.9800 -98.4331 260° West 430 495 20,000  Level Houston Center
Fri 07:35:07 PM 25.9575 -98.5614 259° West 425 489 20,000  Level Houston Center
Fri 07:36:09 PM 25.9339 -98.6981 259° West 421 484 20,000 -48 Level Houston Center
Fri 07:37:11 PM 25.9203 -98.8250 263° West 418 481 19,900 -48 Descending Houston Center
Fri 07:38:13 PM 25.9083 -98.9511 264° West 415 478 19,900  Level Houston Center
Fri 07:39:15 PM 25.8958 -99.0783 264° West 414 476 19,900  Level Houston Center
Fri 07:40:17 PM 25.8847 -99.2072 265° West 414 476 19,900 -387 Level Houston Center
Fri 07:41:19 PM 25.8742 -99.3356 265° West 415 478 19,100 -1,161 Descending Houston Center
Fri 07:42:21 PM 25.8683 -99.4642 267° West 417 480 17,500 -2,032 Descending Houston Center
Fri 07:43:23 PM 25.8803 -99.5925 276° West 417 480 14,900 -2,758 Descending Houston Center
Fri 07:44:25 PM 25.8944 -99.7378 276° West 411 473 11,800 -2,806 Descending Houston Center
Fri 07:45:27 PM 25.9089 -99.8472 278° West 391 450 9,100 -2,565 Descending Houston Center
Fri 07:46:29 PM 25.9169 -99.9214 277° West 319 367 6,500 -1,756 Descending Houston Center
Fri 07:47:30 PM 25.9247 -99.9947 277° West 297 342 5,500 -984 Descending Houston Center

Login

Don't have an account? Register now (free) for customized features, flight alerts, and more!